createdAt,value
2019-01-14T00:00:58.964Z,6.60
2019-01-14T00:02:06.313Z,6.60
2019-01-14T00:03:13.387Z,6.60
2019-01-14T00:04:21.800Z,6.60
2019-01-14T00:05:30.496Z,6.50
2019-01-14T00:06:37.677Z,6.60
2019-01-14T00:07:44.463Z,6.50
2019-01-14T00:08:51.608Z,6.50
2019-01-14T00:09:58.319Z,6.50
2019-01-14T00:11:05.193Z,6.50
2019-01-14T00:12:12.016Z,6.50
2019-01-14T00:13:18.992Z,6.50
2019-01-14T00:14:25.794Z,6.50
2019-01-14T00:15:32.452Z,6.50
2019-01-14T00:16:39.367Z,6.50
2019-01-14T00:17:46.421Z,6.50
2019-01-14T00:18:53.243Z,6.50
2019-01-14T00:19:59.978Z,6.50
2019-01-14T00:21:06.638Z,6.50
2019-01-14T00:22:13.285Z,6.50
2019-01-14T00:23:19.983Z,6.50
2019-01-14T00:24:27.121Z,6.60
2019-01-14T00:25:33.880Z,6.50
2019-01-14T00:26:41.202Z,6.50
2019-01-14T00:27:48.175Z,6.50
2019-01-14T00:28:54.984Z,6.50
2019-01-14T00:30:02.029Z,6.50
2019-01-14T00:31:08.712Z,6.40
2019-01-14T00:32:15.614Z,6.50
2019-01-14T00:33:23.539Z,6.40
2019-01-14T00:34:30.963Z,6.40
2019-01-14T00:35:37.688Z,6.50
2019-01-14T00:36:44.501Z,6.50
2019-01-14T00:37:51.543Z,6.50
2019-01-14T00:38:59.039Z,6.40
2019-01-14T00:40:08.373Z,6.40
2019-01-14T00:41:15.027Z,6.40
2019-01-14T00:42:22.162Z,6.40
2019-01-14T00:43:28.937Z,6.30
2019-01-14T00:44:35.770Z,6.30
2019-01-14T00:45:42.549Z,6.30
2019-01-14T00:46:49.221Z,6.30
2019-01-14T00:47:55.894Z,6.30
2019-01-14T00:49:02.840Z,6.30
2019-01-14T00:50:11.781Z,6.30
2019-01-14T00:51:18.538Z,6.30
2019-01-14T00:52:25.221Z,6.30
2019-01-14T00:53:31.948Z,6.40
2019-01-14T00:54:38.667Z,6.40
2019-01-14T00:55:45.992Z,6.40
2019-01-14T00:56:52.641Z,6.40
2019-01-14T00:57:59.292Z,6.40
2019-01-14T00:59:06.022Z,6.40
2019-01-14T01:00:25.004Z,6.40
2019-01-14T01:01:31.771Z,6.30
2019-01-14T01:02:38.491Z,6.40
2019-01-14T01:03:45.238Z,6.40
2019-01-14T01:04:51.896Z,6.30
2019-01-14T01:05:58.550Z,6.30
2019-01-14T01:07:05.243Z,6.30
2019-01-14T01:08:11.901Z,6.20
2019-01-14T01:09:18.655Z,6.20
2019-01-14T01:10:25.580Z,6.10
2019-01-14T01:11:32.241Z,6.10
2019-01-14T01:12:38.974Z,6.00
2019-01-14T01:13:46.061Z,6.00
2019-01-14T01:14:52.769Z,5.90
2019-01-14T01:16:00.007Z,6.00
2019-01-14T01:17:06.955Z,5.90
2019-01-14T01:18:13.691Z,5.90
2019-01-14T01:19:20.706Z,5.90
2019-01-14T01:20:28.664Z,6.00
2019-01-14T01:21:35.320Z,5.90
2019-01-14T01:22:42.319Z,6.00
2019-01-14T01:23:49.637Z,6.00
2019-01-14T01:24:56.301Z,6.00
2019-01-14T01:26:03.069Z,6.00
2019-01-14T01:27:09.764Z,6.00
2019-01-14T01:28:16.986Z,6.00
2019-01-14T01:29:23.758Z,6.10
2019-01-14T01:30:30.383Z,6.10
2019-01-14T01:31:37.685Z,6.10
2019-01-14T01:32:44.910Z,6.10
2019-01-14T01:33:51.669Z,6.10
2019-01-14T01:34:58.345Z,6.10
2019-01-14T01:36:05.449Z,6.10
2019-01-14T01:37:12.193Z,6.00
2019-01-14T01:38:18.863Z,6.10
2019-01-14T01:39:25.720Z,6.00
2019-01-14T01:40:32.771Z,6.00
2019-01-14T01:41:39.460Z,6.00
2019-01-14T01:42:46.524Z,6.00
2019-01-14T01:43:53.273Z,5.90
2019-01-14T01:45:00.532Z,5.90
2019-01-14T01:46:07.234Z,5.90
2019-01-14T01:47:13.993Z,5.90
2019-01-14T01:48:21.012Z,5.90
2019-01-14T01:49:27.680Z,5.80
2019-01-14T01:50:35.338Z,5.80
2019-01-14T01:51:42.028Z,5.70
2019-01-14T01:52:48.979Z,5.70
2019-01-14T01:53:55.925Z,5.60
2019-01-14T01:55:03.033Z,5.60
2019-01-14T01:56:09.991Z,5.60
2019-01-14T01:57:16.697Z,5.60
2019-01-14T01:58:23.625Z,5.60
2019-01-14T01:59:31.138Z,5.60
2019-01-14T02:00:37.947Z,5.60
2019-01-14T02:01:44.821Z,5.60
2019-01-14T02:02:52.448Z,5.60
2019-01-14T02:03:59.096Z,5.60
2019-01-14T02:05:07.012Z,5.60
2019-01-14T02:06:14.077Z,5.60
2019-01-14T02:07:21.073Z,5.60
2019-01-14T02:08:28.250Z,5.60
2019-01-14T02:09:35.251Z,5.50
2019-01-14T02:10:41.924Z,5.50
2019-01-14T02:11:48.872Z,5.50
2019-01-14T02:12:55.711Z,5.40
2019-01-14T02:14:02.825Z,5.40
2019-01-14T02:15:12.220Z,5.40
2019-01-14T02:16:19.239Z,5.50
2019-01-14T02:17:26.084Z,5.40
2019-01-14T02:18:32.836Z,5.40
2019-01-14T02:19:39.854Z,5.40
2019-01-14T02:20:46.829Z,5.50
2019-01-14T02:21:54.111Z,5.40
2019-01-14T02:23:00.858Z,5.40
2019-01-14T02:24:07.552Z,5.40
2019-01-14T02:25:16.733Z,5.50
2019-01-14T02:26:23.452Z,5.50
2019-01-14T02:27:30.828Z,5.50
2019-01-14T02:28:37.830Z,5.50
2019-01-14T02:29:44.546Z,5.50
2019-01-14T02:30:51.248Z,5.50
2019-01-14T02:31:58.352Z,5.50
2019-01-14T02:33:05.063Z,5.50
2019-01-14T02:34:11.717Z,5.50
2019-01-14T02:35:18.698Z,5.50
2019-01-14T02:36:25.739Z,5.50
2019-01-14T02:37:32.863Z,5.50
2019-01-14T02:38:39.565Z,5.40
2019-01-14T02:39:46.634Z,5.40
2019-01-14T02:40:53.859Z,5.40
2019-01-14T02:42:00.585Z,5.40
2019-01-14T02:43:07.325Z,5.40
2019-01-14T02:44:13.995Z,5.30
2019-01-14T02:45:20.883Z,5.20
2019-01-14T02:46:27.870Z,5.20
2019-01-14T02:47:35.009Z,5.30
2019-01-14T02:48:41.686Z,5.20
2019-01-14T02:49:48.656Z,5.20
2019-01-14T02:50:55.390Z,5.30
2019-01-14T02:52:02.572Z,5.30
2019-01-14T02:53:09.314Z,5.30
2019-01-14T02:54:16.044Z,5.20
2019-01-14T02:55:22.750Z,5.20
2019-01-14T02:56:29.780Z,5.20
2019-01-14T02:57:36.806Z,5.20
2019-01-14T02:58:43.470Z,5.20
2019-01-14T02:59:50.152Z,5.20
2019-01-14T03:00:57.157Z,5.20
2019-01-14T03:02:04.410Z,5.20
2019-01-14T03:03:11.120Z,5.20
2019-01-14T03:04:18.160Z,5.20
2019-01-14T03:05:24.812Z,5.20
2019-01-14T03:06:31.588Z,5.20
2019-01-14T03:07:38.475Z,5.20
2019-01-14T03:08:45.199Z,5.20
2019-01-14T03:09:51.866Z,5.10
2019-01-14T03:11:00.430Z,5.20
2019-01-14T03:12:07.401Z,5.20
2019-01-14T03:13:15.927Z,5.20
2019-01-14T03:14:22.758Z,5.20
2019-01-14T03:15:29.876Z,5.20
2019-01-14T03:16:36.644Z,5.30
2019-01-14T03:17:43.335Z,5.30
2019-01-14T03:18:49.993Z,5.30
2019-01-14T03:19:56.714Z,5.40
2019-01-14T03:21:03.397Z,5.40
2019-01-14T03:22:10.537Z,5.30
2019-01-14T03:23:17.171Z,5.30
2019-01-14T03:24:23.835Z,5.30
2019-01-14T03:25:30.901Z,5.20
2019-01-14T03:26:37.846Z,5.30
2019-01-14T03:27:44.489Z,5.20
2019-01-14T03:28:51.492Z,5.20
2019-01-14T03:29:58.579Z,5.10
2019-01-14T03:31:05.582Z,5.10
2019-01-14T03:32:12.423Z,5.00
2019-01-14T03:33:19.127Z,5.00
2019-01-14T03:34:25.869Z,5.00
2019-01-14T03:35:33.010Z,4.90
2019-01-14T03:36:39.673Z,4.90
2019-01-14T03:37:46.386Z,4.90
2019-01-14T03:38:53.381Z,4.90
2019-01-14T03:40:00.372Z,5.00
2019-01-14T03:41:07.133Z,5.00
2019-01-14T03:42:14.017Z,5.00
2019-01-14T03:43:20.719Z,5.00
2019-01-14T03:44:27.353Z,5.00
2019-01-14T03:45:34.469Z,5.00
2019-01-14T03:46:41.401Z,5.00
2019-01-14T03:47:48.063Z,5.00
2019-01-14T03:48:54.978Z,5.00
2019-01-14T03:50:05.223Z,5.00
2019-01-14T03:51:12.075Z,5.10
2019-01-14T03:52:18.839Z,5.10
2019-01-14T03:53:25.817Z,5.10
2019-01-14T03:54:33.042Z,5.10
2019-01-14T03:55:39.781Z,5.10
2019-01-14T03:56:46.448Z,5.10
2019-01-14T03:57:55.091Z,5.10
2019-01-14T03:59:02.157Z,5.20
2019-01-14T04:00:12.584Z,5.10
2019-01-14T04:01:19.261Z,5.20
2019-01-14T04:02:26.038Z,5.20
2019-01-14T04:03:33.061Z,5.20
2019-01-14T04:04:39.745Z,5.20
2019-01-14T04:05:46.367Z,5.20
2019-01-14T04:06:53.272Z,5.30
2019-01-14T04:08:00.298Z,5.30
2019-01-14T04:09:09.090Z,5.30
2019-01-14T04:10:17.572Z,5.30
2019-01-14T04:11:30.047Z,5.20
2019-01-14T04:12:36.870Z,5.20
2019-01-14T04:13:43.910Z,5.20
2019-01-14T04:14:50.899Z,5.10
2019-01-14T04:15:57.558Z,5.10
2019-01-14T04:17:04.736Z,5.20
2019-01-14T04:18:11.434Z,5.10
2019-01-14T04:19:18.804Z,5.10
2019-01-14T04:20:27.464Z,5.10
2019-01-14T04:21:34.358Z,5.20
2019-01-14T04:22:41.078Z,5.20
2019-01-14T04:23:47.977Z,5.20
2019-01-14T04:24:54.633Z,5.20
2019-01-14T04:26:01.313Z,5.20
2019-01-14T04:27:08.069Z,5.20
2019-01-14T04:28:15.207Z,5.10
2019-01-14T04:29:21.843Z,5.10
2019-01-14T04:30:28.539Z,5.20
2019-01-14T04:31:35.520Z,5.10
2019-01-14T04:32:42.456Z,5.10
2019-01-14T04:33:49.298Z,5.10
2019-01-14T04:34:56.259Z,5.10
2019-01-14T04:36:03.279Z,5.20
2019-01-14T04:37:10.316Z,5.20
2019-01-14T04:38:17.337Z,5.10
2019-01-14T04:39:24.974Z,5.10
2019-01-14T04:40:31.659Z,5.10
2019-01-14T04:41:38.415Z,5.10
2019-01-14T04:42:45.772Z,5.10
2019-01-14T04:43:52.426Z,5.00
2019-01-14T04:44:59.100Z,5.00
2019-01-14T04:46:06.173Z,5.00
2019-01-14T04:47:13.031Z,5.10
2019-01-14T04:48:19.963Z,5.10
2019-01-14T04:49:26.992Z,5.10
2019-01-14T04:50:33.921Z,5.10
2019-01-14T04:51:40.561Z,5.10
2019-01-14T04:52:47.565Z,5.00
2019-01-14T04:53:54.648Z,5.00
2019-01-14T04:55:01.366Z,5.00
2019-01-14T04:56:08.396Z,5.00
2019-01-14T04:57:15.054Z,5.00
2019-01-14T04:58:22.066Z,5.00
2019-01-14T04:59:28.805Z,5.00
2019-01-14T05:00:35.849Z,5.00
2019-01-14T05:01:42.941Z,5.00
2019-01-14T05:02:50.589Z,5.00
2019-01-14T05:03:57.985Z,5.00
2019-01-14T05:05:05.488Z,5.00
2019-01-14T05:06:12.339Z,5.00
2019-01-14T05:07:19.324Z,4.90
2019-01-14T05:08:26.300Z,5.00
2019-01-14T05:09:33.268Z,4.90
2019-01-14T05:10:39.981Z,4.90
2019-01-14T05:11:46.716Z,4.90
2019-01-14T05:12:54.296Z,4.90
2019-01-14T05:14:01.061Z,4.90
2019-01-14T05:15:09.894Z,4.90
2019-01-14T05:16:16.533Z,4.90
2019-01-14T05:17:23.196Z,4.90
2019-01-14T05:18:29.905Z,4.90
2019-01-14T05:19:36.997Z,4.90
2019-01-14T05:20:43.622Z,4.80
2019-01-14T05:21:50.749Z,4.80
2019-01-14T05:22:58.218Z,4.80
2019-01-14T05:24:04.886Z,4.80
2019-01-14T05:25:11.635Z,4.80
2019-01-14T05:26:18.625Z,4.90
2019-01-14T05:27:25.317Z,4.90
2019-01-14T05:28:32.131Z,4.80
2019-01-14T05:29:38.973Z,4.80
2019-01-14T05:30:45.701Z,4.80
2019-01-14T05:31:52.720Z,4.80
2019-01-14T05:32:59.703Z,4.80
2019-01-14T05:34:06.409Z,4.80
2019-01-14T05:35:13.556Z,4.90
2019-01-14T05:36:20.593Z,4.90
2019-01-14T05:37:27.253Z,4.90
2019-01-14T05:38:34.450Z,4.90
2019-01-14T05:39:41.815Z,4.80
2019-01-14T05:40:48.498Z,4.80
2019-01-14T05:41:55.271Z,4.80
2019-01-14T05:43:01.999Z,4.80
2019-01-14T05:44:09.008Z,4.80
2019-01-14T05:45:15.876Z,4.80
2019-01-14T05:46:22.850Z,4.70
2019-01-14T05:47:29.933Z,4.80
2019-01-14T05:48:36.712Z,4.80
2019-01-14T05:49:43.824Z,4.70
2019-01-14T05:50:50.854Z,4.70
2019-01-14T05:51:57.514Z,4.70
2019-01-14T05:53:05.143Z,4.70
2019-01-14T05:54:12.188Z,4.70
2019-01-14T05:55:19.310Z,4.70
2019-01-14T05:56:25.997Z,4.70
2019-01-14T05:57:33.489Z,4.70
2019-01-14T05:58:40.176Z,4.70
2019-01-14T05:59:46.848Z,4.70
2019-01-14T06:00:53.545Z,4.60
2019-01-14T06:02:00.712Z,4.60
2019-01-14T06:03:07.547Z,4.70
2019-01-14T06:04:14.272Z,4.60
2019-01-14T06:05:20.955Z,4.60
2019-01-14T06:06:27.641Z,4.60
2019-01-14T06:07:34.343Z,4.50
2019-01-14T06:08:41.068Z,4.50
2019-01-14T06:09:47.713Z,4.50
2019-01-14T06:10:54.705Z,4.50
2019-01-14T06:12:01.796Z,4.50
2019-01-14T06:13:08.572Z,4.40
2019-01-14T06:14:15.227Z,4.40
2019-01-14T06:15:21.937Z,4.40
2019-01-14T06:16:28.636Z,4.40
2019-01-14T06:17:35.319Z,4.30
2019-01-14T06:18:42.006Z,4.40
2019-01-14T06:19:48.886Z,4.40
2019-01-14T06:20:55.917Z,4.40
2019-01-14T06:22:02.720Z,4.50
2019-01-14T06:23:12.281Z,4.50
2019-01-14T06:24:18.955Z,4.50
2019-01-14T06:25:25.680Z,4.60
2019-01-14T06:26:33.083Z,4.60
2019-01-14T06:27:39.787Z,4.60
2019-01-14T06:28:46.907Z,4.70
2019-01-14T06:29:54.530Z,4.80
2019-01-14T06:31:01.314Z,4.70
2019-01-14T06:32:08.325Z,4.80
2019-01-14T06:33:14.965Z,4.70
2019-01-14T06:34:22.041Z,4.80
2019-01-14T06:35:30.152Z,4.80
2019-01-14T06:36:36.808Z,4.80
2019-01-14T06:37:43.861Z,4.80
2019-01-14T06:38:50.909Z,4.90
2019-01-14T06:39:57.998Z,4.90
2019-01-14T06:41:04.689Z,5.00
2019-01-14T06:42:11.393Z,5.10
2019-01-14T06:43:18.747Z,5.00
2019-01-14T06:44:25.537Z,5.10
2019-01-14T06:45:32.237Z,5.10
2019-01-14T06:46:38.913Z,5.10
2019-01-14T06:47:46.379Z,5.10
2019-01-14T06:48:53.195Z,5.20
2019-01-14T06:49:59.919Z,5.20
2019-01-14T06:51:06.671Z,5.20
2019-01-14T06:52:13.814Z,5.20
2019-01-14T06:53:20.488Z,5.20
2019-01-14T06:54:29.442Z,5.20
2019-01-14T06:55:36.602Z,5.20
2019-01-14T06:56:43.636Z,5.20
2019-01-14T06:57:50.488Z,5.10
2019-01-14T06:58:57.314Z,5.10
2019-01-14T07:00:05.258Z,5.10
2019-01-14T07:01:11.910Z,5.00
2019-01-14T07:02:19.086Z,5.00
2019-01-14T07:03:25.751Z,4.90
2019-01-14T07:04:32.448Z,4.90
2019-01-14T07:05:39.453Z,4.80
2019-01-14T07:06:46.147Z,4.70
2019-01-14T07:07:59.520Z,4.70
2019-01-14T07:09:02.169Z,4.60
2019-01-14T07:10:12.592Z,4.60
2019-01-14T07:11:20.374Z,4.50
2019-01-14T07:12:27.070Z,4.50
2019-01-14T07:13:34.261Z,4.50
2019-01-14T07:14:41.609Z,4.40
2019-01-14T07:15:48.305Z,4.40
2019-01-14T07:16:54.983Z,4.40
2019-01-14T07:18:01.631Z,4.30
2019-01-14T07:19:08.422Z,4.30
2019-01-14T07:20:16.033Z,4.20
2019-01-14T07:21:23.081Z,4.20
2019-01-14T07:22:29.822Z,4.20
2019-01-14T07:23:36.587Z,4.20
2019-01-14T07:24:43.365Z,4.20
2019-01-14T07:25:50.046Z,4.20
2019-01-14T07:26:57.380Z,4.20
2019-01-14T07:28:04.685Z,4.20
2019-01-14T07:29:11.340Z,4.20
2019-01-14T07:30:20.746Z,4.10
2019-01-14T07:31:27.463Z,4.10
2019-01-14T07:32:34.154Z,4.10
2019-01-14T07:33:40.832Z,4.10
2019-01-14T07:34:47.488Z,4.10
2019-01-14T07:35:54.484Z,4.00
2019-01-14T07:37:01.181Z,4.00
2019-01-14T07:38:08.064Z,3.90
2019-01-14T07:39:14.781Z,3.90
2019-01-14T07:40:22.200Z,3.90
2019-01-14T07:41:29.217Z,3.90
2019-01-14T07:42:36.248Z,3.90
2019-01-14T07:43:42.901Z,3.90
2019-01-14T07:44:49.852Z,4.00
2019-01-14T07:45:56.785Z,3.90
2019-01-14T07:47:04.636Z,4.00
2019-01-14T07:48:11.486Z,4.10
2019-01-14T07:49:18.246Z,4.10
2019-01-14T07:50:24.982Z,4.20
2019-01-14T07:51:32.626Z,4.10
2019-01-14T07:52:39.913Z,4.20
2019-01-14T07:53:47.088Z,4.10
2019-01-14T07:54:53.791Z,4.10
2019-01-14T07:56:01.138Z,4.10
2019-01-14T07:57:07.861Z,4.10
2019-01-14T07:58:14.704Z,4.10
2019-01-14T07:59:21.784Z,4.10
2019-01-14T08:00:29.177Z,4.00
2019-01-14T08:01:35.932Z,4.00
2019-01-14T08:02:42.640Z,4.00
2019-01-14T08:03:49.329Z,3.90
2019-01-14T08:04:55.999Z,3.90
2019-01-14T08:06:02.824Z,3.80
2019-01-14T08:07:09.522Z,3.80
2019-01-14T08:08:16.169Z,3.80
2019-01-14T08:09:22.896Z,3.80
2019-01-14T08:10:29.533Z,3.80
2019-01-14T08:11:36.599Z,3.70
2019-01-14T08:12:43.627Z,3.70
2019-01-14T08:13:50.313Z,3.70
2019-01-14T08:14:57.137Z,3.70
2019-01-14T08:16:04.144Z,3.80
2019-01-14T08:17:10.840Z,3.70
2019-01-14T08:18:18.025Z,3.80
2019-01-14T08:19:24.703Z,3.90
2019-01-14T08:20:31.766Z,3.90
2019-01-14T08:21:38.677Z,3.90
2019-01-14T08:22:45.355Z,4.00
2019-01-14T08:23:52.100Z,4.00
2019-01-14T08:24:59.133Z,3.90
2019-01-14T08:26:05.870Z,3.90
2019-01-14T08:27:31.966Z,3.80
2019-01-14T08:28:39.000Z,3.80
2019-01-14T08:29:45.822Z,3.80
2019-01-14T08:30:52.496Z,3.80
2019-01-14T08:31:59.348Z,3.80
2019-01-14T08:33:06.232Z,3.90
2019-01-14T08:34:13.262Z,3.90
2019-01-14T08:35:20.654Z,3.90
2019-01-14T08:36:27.753Z,3.90
2019-01-14T08:37:34.557Z,3.80
2019-01-14T08:38:41.280Z,3.70
2019-01-14T08:39:47.978Z,3.70
2019-01-14T08:40:55.291Z,3.70
2019-01-14T08:42:05.416Z,3.70
2019-01-14T08:43:12.490Z,3.70
2019-01-14T08:44:20.239Z,3.70
2019-01-14T08:45:27.234Z,3.70
2019-01-14T08:46:33.975Z,3.70
2019-01-14T08:47:40.999Z,3.70
2019-01-14T08:48:48.857Z,3.60
2019-01-14T08:49:55.739Z,3.60
2019-01-14T08:51:02.418Z,3.50
2019-01-14T08:52:09.516Z,3.50
2019-01-14T08:53:16.407Z,3.40
2019-01-14T08:54:23.744Z,3.40
2019-01-14T08:55:30.768Z,3.40
2019-01-14T08:56:37.803Z,3.30
2019-01-14T08:57:44.781Z,3.20
2019-01-14T08:58:51.448Z,3.20
2019-01-14T08:59:58.181Z,3.20
2019-01-14T09:01:04.899Z,3.10
2019-01-14T09:02:11.556Z,3.10
2019-01-14T09:03:18.251Z,3.10
2019-01-14T09:04:32.161Z,3.00
2019-01-14T09:05:33.451Z,3.10
2019-01-14T09:06:40.477Z,3.10
2019-01-14T09:07:47.345Z,3.10
2019-01-14T09:08:54.189Z,3.10
2019-01-14T09:10:00.853Z,3.10
2019-01-14T09:11:07.734Z,3.10
2019-01-14T09:12:14.364Z,3.10
2019-01-14T09:13:21.040Z,3.20
2019-01-14T09:14:28.072Z,3.20
2019-01-14T09:15:35.574Z,3.20
2019-01-14T09:16:42.264Z,3.30
2019-01-14T09:17:49.517Z,3.30
2019-01-14T09:18:56.733Z,3.30
2019-01-14T09:20:03.981Z,3.40
2019-01-14T09:21:10.918Z,3.40
2019-01-14T09:22:17.933Z,3.40
2019-01-14T09:23:24.671Z,3.50
2019-01-14T09:24:31.363Z,3.50
2019-01-14T09:25:38.400Z,3.50
2019-01-14T09:26:45.142Z,3.60
2019-01-14T09:27:51.939Z,3.60
2019-01-14T09:28:58.674Z,3.60
2019-01-14T09:30:09.004Z,3.70
2019-01-14T09:31:15.657Z,3.70
2019-01-14T09:32:22.515Z,3.70
2019-01-14T09:33:29.565Z,3.70
2019-01-14T09:34:36.509Z,3.80
2019-01-14T09:35:43.167Z,3.80
2019-01-14T09:36:49.915Z,3.80
2019-01-14T09:37:56.613Z,3.80
2019-01-14T09:39:04.285Z,3.80
2019-01-14T09:40:14.324Z,3.90
2019-01-14T09:41:21.302Z,3.90
2019-01-14T09:42:28.157Z,4.00
2019-01-14T09:43:34.908Z,4.00
2019-01-14T09:44:42.017Z,4.20
2019-01-14T09:45:48.705Z,4.20
2019-01-14T09:46:55.387Z,4.30
2019-01-14T09:48:02.064Z,4.30
2019-01-14T09:49:08.819Z,4.40
2019-01-14T09:50:17.044Z,4.50
2019-01-14T09:51:23.717Z,4.50
2019-01-14T09:52:30.423Z,4.50
2019-01-14T09:53:37.147Z,4.50
2019-01-14T09:54:44.228Z,4.60
2019-01-14T09:55:51.049Z,4.60
2019-01-14T09:56:57.738Z,4.60
2019-01-14T09:58:04.527Z,4.70
2019-01-14T09:59:11.257Z,4.80
2019-01-14T10:00:18.028Z,4.80
2019-01-14T10:01:25.052Z,4.90
2019-01-14T10:02:31.856Z,4.90
2019-01-14T10:03:38.602Z,4.90
2019-01-14T10:04:45.348Z,4.90
2019-01-14T10:05:52.051Z,4.90
2019-01-14T10:06:59.107Z,4.90
2019-01-14T10:08:06.151Z,4.80
2019-01-14T10:09:12.851Z,4.90
2019-01-14T10:10:21.144Z,4.80
2019-01-14T10:11:27.909Z,4.90
2019-01-14T10:12:34.763Z,4.80
2019-01-14T10:13:41.558Z,4.70
2019-01-14T10:14:50.590Z,4.70
2019-01-14T10:15:57.293Z,4.70
2019-01-14T10:17:04.057Z,4.70
2019-01-14T10:18:11.149Z,4.70
2019-01-14T10:19:18.231Z,4.70
2019-01-14T10:20:24.861Z,4.70
2019-01-14T10:21:32.385Z,4.60
2019-01-14T10:22:39.052Z,4.70
2019-01-14T10:23:46.307Z,4.60
2019-01-14T10:24:53.027Z,4.60
2019-01-14T10:26:01.706Z,4.60
2019-01-14T10:27:08.646Z,4.60
2019-01-14T10:28:15.354Z,4.60
2019-01-14T10:29:22.307Z,4.60
2019-01-14T10:30:29.027Z,4.60
2019-01-14T10:31:36.048Z,4.60
2019-01-14T10:32:42.947Z,4.70
2019-01-14T10:33:49.625Z,4.70
2019-01-14T10:34:56.581Z,4.80
2019-01-14T10:36:03.331Z,4.80
2019-01-14T10:37:10.027Z,4.80
2019-01-14T10:38:17.046Z,4.80
2019-01-14T10:39:25.669Z,4.80
2019-01-14T10:40:32.392Z,4.70
2019-01-14T10:41:39.141Z,4.70
2019-01-14T10:42:46.035Z,4.60
2019-01-14T10:43:52.736Z,4.60
2019-01-14T10:44:59.528Z,4.60
2019-01-14T10:46:06.283Z,4.50
2019-01-14T10:47:14.601Z,4.50
2019-01-14T10:48:21.704Z,4.60
2019-01-14T10:49:28.459Z,4.60
2019-01-14T10:50:35.324Z,4.70
2019-01-14T10:51:42.868Z,4.70
2019-01-14T10:52:49.604Z,4.80
2019-01-14T10:53:56.424Z,4.70
2019-01-14T10:55:03.524Z,4.70
2019-01-14T10:56:10.267Z,4.70
2019-01-14T10:57:17.358Z,4.70
2019-01-14T10:58:24.068Z,4.70
2019-01-14T10:59:31.173Z,4.70
2019-01-14T11:00:38.432Z,4.70
2019-01-14T11:01:45.128Z,4.70
2019-01-14T11:02:52.066Z,4.70
2019-01-14T11:03:58.788Z,4.80
2019-01-14T11:05:07.672Z,4.80
2019-01-14T11:06:14.318Z,4.90
2019-01-14T11:07:25.339Z,4.90
2019-01-14T11:08:32.054Z,5.10
2019-01-14T11:09:38.834Z,5.20
2019-01-14T11:10:45.521Z,5.20
2019-01-14T11:11:52.852Z,5.30
2019-01-14T11:12:59.494Z,5.30
2019-01-14T11:14:08.008Z,5.30
2019-01-14T11:15:16.190Z,5.30
2019-01-14T11:16:22.954Z,5.40
2019-01-14T11:17:29.693Z,5.40
2019-01-14T11:18:36.754Z,5.40
2019-01-14T11:19:43.432Z,5.40
2019-01-14T11:20:50.088Z,5.50
2019-01-14T11:21:56.787Z,5.50
2019-01-14T11:23:04.671Z,5.50
2019-01-14T11:24:13.132Z,5.50
2019-01-14T11:25:20.635Z,5.50
2019-01-14T11:26:27.669Z,5.60
2019-01-14T11:27:34.319Z,5.60
2019-01-14T11:28:41.347Z,5.60
2019-01-14T11:29:54.926Z,5.60
2019-01-14T11:31:03.387Z,5.60
2019-01-14T11:32:10.498Z,5.60
2019-01-14T11:33:17.228Z,5.60
2019-01-14T11:34:23.896Z,5.70
2019-01-14T11:35:30.723Z,5.80
2019-01-14T11:36:37.504Z,5.80
2019-01-14T11:37:44.187Z,5.80
2019-01-14T11:38:54.571Z,5.80
2019-01-14T11:40:01.643Z,5.90
2019-01-14T11:41:08.733Z,5.90
2019-01-14T11:42:15.792Z,5.90
2019-01-14T11:43:22.567Z,6.00
2019-01-14T11:44:29.217Z,6.10
2019-01-14T11:45:36.048Z,6.20
2019-01-14T11:46:42.716Z,6.30
2019-01-14T11:47:49.754Z,6.30
2019-01-14T11:48:56.422Z,6.30
2019-01-14T11:50:03.293Z,6.30
2019-01-14T11:51:10.280Z,6.30
2019-01-14T11:52:17.022Z,6.30
2019-01-14T11:53:23.714Z,6.40
2019-01-14T11:54:31.138Z,6.50
2019-01-14T11:55:38.244Z,6.60
2019-01-14T11:56:45.452Z,6.80
2019-01-14T11:57:52.579Z,6.70
2019-01-14T11:58:59.249Z,6.70
2019-01-14T12:00:12.463Z,6.70
2019-01-14T12:01:19.522Z,6.50
2019-01-14T12:02:26.494Z,6.40
2019-01-14T12:03:33.187Z,6.40
2019-01-14T12:04:40.205Z,6.40
2019-01-14T12:05:47.448Z,6.30
2019-01-14T12:06:54.184Z,6.20
2019-01-14T12:08:00.876Z,6.00
2019-01-14T12:09:12.303Z,5.90
2019-01-14T12:10:19.715Z,5.70
2019-01-14T12:11:26.555Z,5.40
2019-01-14T12:12:33.268Z,5.20
2019-01-14T12:13:40.249Z,5.10
2019-01-14T12:14:47.281Z,4.90
2019-01-14T12:15:53.946Z,4.70
2019-01-14T12:17:00.701Z,4.70
2019-01-14T12:18:08.090Z,4.60
2019-01-14T12:19:15.110Z,4.50
2019-01-14T12:20:21.990Z,4.50
2019-01-14T12:21:28.964Z,4.30
2019-01-14T12:22:35.712Z,4.30
2019-01-14T12:23:42.745Z,4.30
2019-01-14T12:24:49.456Z,4.20
2019-01-14T12:25:56.134Z,4.20
2019-01-14T12:27:02.798Z,4.20
2019-01-14T12:28:09.895Z,4.30
2019-01-14T12:29:16.659Z,4.20
2019-01-14T12:30:34.352Z,4.20
2019-01-14T12:31:41.082Z,4.30
2019-01-14T12:32:48.144Z,4.40
2019-01-14T12:33:54.965Z,4.30
2019-01-14T12:35:02.040Z,4.30
2019-01-14T12:36:08.773Z,4.30
2019-01-14T12:37:15.868Z,4.30
2019-01-14T12:38:22.532Z,4.30
2019-01-14T12:39:29.600Z,4.40
2019-01-14T12:40:37.665Z,4.50
2019-01-14T12:41:50.958Z,4.60
2019-01-14T12:42:53.263Z,4.70
2019-01-14T12:44:00.492Z,4.80
2019-01-14T12:45:09.638Z,4.80
2019-01-14T12:46:16.359Z,4.90
2019-01-14T12:47:23.471Z,5.00
2019-01-14T12:48:30.555Z,5.10
2019-01-14T12:49:37.581Z,5.30
2019-01-14T12:50:44.256Z,5.50
2019-01-14T12:51:50.936Z,5.70
2019-01-14T12:52:57.661Z,5.80
2019-01-14T12:54:04.590Z,6.00
2019-01-14T12:55:12.366Z,6.00
2019-01-14T12:56:19.120Z,6.00
2019-01-14T12:57:26.106Z,6.00
2019-01-14T12:58:33.233Z,6.00
2019-01-14T12:59:39.974Z,6.00
2019-01-14T13:00:47.047Z,6.00
2019-01-14T13:01:54.139Z,6.10
2019-01-14T13:03:00.856Z,6.20
2019-01-14T13:04:07.553Z,6.30
2019-01-14T13:05:15.581Z,6.30
2019-01-14T13:06:22.309Z,6.30
2019-01-14T13:07:29.047Z,6.40
2019-01-14T13:08:35.835Z,6.30
2019-01-14T13:09:42.876Z,6.20
2019-01-14T13:10:49.633Z,6.20
2019-01-14T13:11:56.392Z,6.20
2019-01-14T13:13:03.089Z,6.20
2019-01-14T13:14:10.139Z,6.20
2019-01-14T13:15:23.183Z,6.10
2019-01-14T13:16:29.911Z,6.20
2019-01-14T13:17:36.596Z,6.20
2019-01-14T13:18:43.303Z,6.30
2019-01-14T13:19:50.280Z,6.30
2019-01-14T13:20:56.929Z,6.20
2019-01-14T13:22:04.113Z,6.30
2019-01-14T13:23:10.780Z,6.20
2019-01-14T13:24:17.470Z,6.20
2019-01-14T13:25:24.777Z,6.20
2019-01-14T13:26:32.119Z,6.20
2019-01-14T13:27:38.816Z,6.20
2019-01-14T13:28:45.456Z,6.20
2019-01-14T13:29:52.144Z,6.20
2019-01-14T13:30:58.826Z,6.30
2019-01-14T13:32:05.597Z,6.30
2019-01-14T13:33:12.642Z,6.30
2019-01-14T13:34:19.386Z,6.20
2019-01-14T13:35:26.330Z,6.20
2019-01-14T13:36:33.423Z,6.30
2019-01-14T13:37:40.162Z,6.30
2019-01-14T13:38:46.854Z,6.10
2019-01-14T13:39:53.552Z,6.10
2019-01-14T13:41:00.247Z,6.00
2019-01-14T13:42:07.309Z,6.00
2019-01-14T13:43:14.154Z,6.00
2019-01-14T13:44:21.365Z,6.00
2019-01-14T13:45:28.421Z,6.00
2019-01-14T13:46:35.547Z,6.00
2019-01-14T13:47:42.205Z,6.00
2019-01-14T13:48:49.097Z,6.00
2019-01-14T13:49:56.172Z,6.10
2019-01-14T13:51:02.895Z,6.10
2019-01-14T13:52:09.603Z,6.00
2019-01-14T13:53:16.251Z,6.00
2019-01-14T13:54:22.907Z,6.00
2019-01-14T13:55:29.678Z,5.90
2019-01-14T13:56:36.771Z,5.90
2019-01-14T13:57:43.724Z,5.80
2019-01-14T13:58:50.434Z,5.80
2019-01-14T13:59:57.490Z,5.90
2019-01-14T14:01:04.152Z,5.90
2019-01-14T14:02:10.949Z,5.90
2019-01-14T14:03:18.015Z,5.90
2019-01-14T14:04:24.992Z,5.90
2019-01-14T14:05:31.700Z,5.80
2019-01-14T14:06:38.759Z,5.80
2019-01-14T14:07:45.759Z,5.90
2019-01-14T14:08:52.403Z,5.80
2019-01-14T14:09:59.106Z,5.80
2019-01-14T14:11:06.001Z,5.80
2019-01-14T14:12:12.961Z,5.90
2019-01-14T14:13:19.697Z,5.80
2019-01-14T14:14:26.378Z,5.80
2019-01-14T14:15:33.415Z,5.80
2019-01-14T14:16:40.455Z,5.80
2019-01-14T14:17:47.108Z,5.80
2019-01-14T14:18:54.297Z,5.80
2019-01-14T14:20:01.365Z,5.80
2019-01-14T14:21:08.094Z,5.90
2019-01-14T14:22:15.233Z,5.90
2019-01-14T14:23:21.924Z,5.80
2019-01-14T14:24:28.922Z,5.80
2019-01-14T14:25:36.058Z,5.80
2019-01-14T14:26:43.041Z,5.80
2019-01-14T14:27:49.873Z,5.80
2019-01-14T14:28:56.818Z,5.80
2019-01-14T14:30:03.861Z,5.80
2019-01-14T14:31:10.859Z,5.80
2019-01-14T14:32:17.509Z,5.80
2019-01-14T14:33:24.605Z,5.90
2019-01-14T14:34:32.036Z,5.80
2019-01-14T14:35:38.781Z,5.80
2019-01-14T14:36:45.470Z,5.80
2019-01-14T14:37:52.172Z,5.80
2019-01-14T14:38:59.173Z,5.80
2019-01-14T14:40:07.842Z,5.70
2019-01-14T14:41:14.886Z,5.70
2019-01-14T14:42:21.899Z,5.60
2019-01-14T14:43:28.573Z,5.60
2019-01-14T14:44:35.670Z,5.60
2019-01-14T14:45:42.840Z,5.60
2019-01-14T14:46:49.859Z,5.60
2019-01-14T14:47:56.603Z,5.60
2019-01-14T14:49:03.246Z,5.60
2019-01-14T14:50:13.572Z,5.60
2019-01-14T14:51:20.238Z,5.70
2019-01-14T14:52:26.931Z,5.70
2019-01-14T14:53:33.660Z,5.60